עמוד ראשי
תמונות לווין תחזית 15-יוםאקליםתחזית ים סופות טרופיות ברק שדות תעופהשאלות נפוצות עלון אודות
מזג אוויר : אירופה אפריקה אמריקה הצפונית אמריקה הדרומית אסיה אוסטרליה-אוקיאניה אחר
שפות איש קשר

סלוניקי, יוון

קו רוחב: 40-31N, קו אורך: 022-58E, גובה: 8 m


METAR: LGTS 291820Z 14006KT 9999 FEW025 SCT180 28/20 Q1008 NOSIG
short-TAF: מיושן (37525 שעות)
long-TAF: LGTS 291700Z 2918/3018 VRB03KT CAVOK BECMG 3006/3008 27010KT 9999 FEW030 BECMG 3011/3013 18012KT

זמן: 21:49 (18:49 UTC)

תצפית מזג אוויר נוכחית

הדו"ח נערך לפני 29 דקות, בשעה 18:20 UTC  
רוח 06 קשר מכיוון דרום-מזרח
טמפרטורת 28°C
לחות 62%
לחץ 1008 hPa
ראות 10 km או יותר
מעט עננים בגובה 2500 ft
עננים פזורים בגובה 18000 ft

שינוי יחידות

תחזית

הדו"ח נערך לפני 1 שעה ו 37 דקות, בשעה 17:12 UTC  
תחזית בתוקף מ 29 ב 18 UTC עד 30 ב 18 UTC
רוח 03 קשר רוח עם כיוונים משתנים
ראות 10 km או יותר
ללא עננים שבסיסם נמוך מ 1500 רגל או קומולונימבוס
יעשה מ
30 ב 06 UTC עד 30 ב 08 UTC
רוח 10 קשר מכיוון מערב
ראות 10 km או יותר
מעט עננים בגובה 3000 ft
יעשה מ
30 ב 11 UTC עד 30 ב 13 UTC
רוח 12 קשר מכיוון דרום
המידע באתר זה מותנה של תניית פטור
מזג אוויר : אירופה אפריקה אמריקה הצפונית אמריקה הדרומית אסיה אוסטרליה-אוקיאניה אחר
תמונות לווין תחזית 15-יוםאקליםתחזית ים סופות טרופיות ברק שדות תעופהשאלות נפוצות שפות איש קשר עלון אודות